TTW284 RCKH-RJBB
Flight info
| Callsign | TTW284 |
|---|---|
| Flight time | N/A |
| Altitude | 37000 |
| Route | TNN2G TNN W4 ANLOT M750 MADOG Y53 NIXOV |
| Aircraft | A320/M-SDE3FGHIRWY/LB1 |
Departure
| Time | 2026-04-25 01:49 |
|---|---|
| Airport | Kaohsiung International Airport (RCKH) |
Arrival
| Time | N/A |
|---|---|
| Airport | Kansai International Airport (RJBB) |
| Time | Latitude | Longitude | Altitude | Speed | Heading |
|---|---|---|---|---|---|
| 2026-04-25 01:38 | 22.57271 | 120.33969 | 38 ft | 0 kts | 272° |
| 2026-04-25 01:42 | 22.57269 | 120.33996 | 38 ft | 4 kts | 276° |
| 2026-04-25 01:43 | 22.57264 | 120.34024 | 36 ft | 4 kts | 290° |
| 2026-04-25 01:43 | 22.57251 | 120.34047 | 34 ft | 4 kts | 343° |
| 2026-04-25 01:43 | 22.57245 | 120.34049 | 36 ft | 0 kts | 2° |
| 2026-04-25 01:45 | 22.57252 | 120.34049 | 35 ft | 3 kts | 2° |
| 2026-04-25 01:46 | 22.57284 | 120.34050 | 36 ft | 6 kts | 2° |
| 2026-04-25 01:46 | 22.57348 | 120.34052 | 38 ft | 12 kts | 2° |
| 2026-04-25 01:46 | 22.57411 | 120.33998 | 38 ft | 16 kts | 273° |
| 2026-04-25 01:46 | 22.57416 | 120.33867 | 38 ft | 18 kts | 272° |
| 2026-04-25 01:47 | 22.57420 | 120.33723 | 38 ft | 20 kts | 272° |
| 2026-04-25 01:47 | 22.57484 | 120.33625 | 37 ft | 17 kts | 322° |
| 2026-04-25 01:47 | 22.57575 | 120.33539 | 37 ft | 18 kts | 317° |
| 2026-04-25 01:47 | 22.57656 | 120.33501 | 38 ft | 9 kts | 4° |
| 2026-04-25 01:48 | 22.57724 | 120.33506 | 38 ft | 10 kts | 6° |
| 2026-04-25 01:48 | 22.57753 | 120.33562 | 38 ft | 10 kts | 92° |
| 2026-04-25 01:48 | 22.57752 | 120.33572 | 38 ft | 2 kts | 92° |
| 2026-04-25 01:48 | 22.57751 | 120.33615 | 38 ft | 22 kts | 91° |
| 2026-04-25 01:49 | 22.57742 | 120.34046 | 38 ft | 90 kts | 91° |
| 2026-04-25 01:49 | 22.57739 | 120.34919 | 39 ft | 140 kts | 88° |
| 2026-04-25 01:49 | 22.57694 | 120.36079 | 217 ft | 164 kts | 94° |
| 2026-04-25 01:49 | 22.57555 | 120.37375 | 641 ft | 180 kts | 95° |
| 2026-04-25 01:50 | 22.57401 | 120.38702 | 1324 ft | 177 kts | 107° |
| 2026-04-25 01:50 | 22.56768 | 120.39824 | 1948 ft | 181 kts | 139° |
| 2026-04-25 01:50 | 22.55553 | 120.40374 | 2257 ft | 204 kts | 177° |
| 2026-04-25 01:50 | 22.54166 | 120.39935 | 2686 ft | 221 kts | 211° |
| 2026-04-25 01:51 | 22.52847 | 120.39000 | 3342 ft | 225 kts | 213° |
| 2026-04-25 01:51 | 22.51537 | 120.38057 | 4129 ft | 227 kts | 214° |
| 2026-04-25 01:51 | 22.50219 | 120.37108 | 5028 ft | 227 kts | 215° |
| 2026-04-25 01:51 | 22.48903 | 120.36162 | 5825 ft | 228 kts | 215° |
| 2026-04-25 01:52 | 22.47579 | 120.35212 | 6581 ft | 228 kts | 216° |
| 2026-04-25 01:52 | 22.46307 | 120.34196 | 7292 ft | 227 kts | 229° |
| 2026-04-25 01:52 | 22.45550 | 120.32752 | 7982 ft | 226 kts | 257° |
| 2026-04-25 01:52 | 22.45544 | 120.31008 | 8383 ft | 247 kts | 285° |
| 2026-04-25 01:53 | 22.46295 | 120.29234 | 8705 ft | 270 kts | 294° |
| 2026-04-25 01:53 | 22.47162 | 120.27401 | 9334 ft | 277 kts | 294° |
| 2026-04-25 01:53 | 22.48043 | 120.25538 | 10076 ft | 280 kts | 293° |
| 2026-04-25 01:53 | 22.48949 | 120.23607 | 10472 ft | 298 kts | 293° |
| 2026-04-25 01:54 | 22.49909 | 120.21535 | 10676 ft | 318 kts | 292° |
| 2026-04-25 01:54 | 22.50924 | 120.19377 | 11180 ft | 326 kts | 296° |
| 2026-04-25 01:54 | 22.52429 | 120.17494 | 11766 ft | 340 kts | 319° |
| 2026-04-25 01:54 | 22.54592 | 120.16380 | 12378 ft | 355 kts | 343° |
| 2026-04-25 01:55 | 22.57102 | 120.16261 | 13015 ft | 366 kts | 360° |
| 2026-04-25 01:55 | 22.59652 | 120.16450 | 13646 ft | 370 kts | 0° |
| 2026-04-25 01:55 | 22.62234 | 120.16660 | 14224 ft | 373 kts | 0° |
| 2026-04-25 01:55 | 22.64830 | 120.16876 | 14807 ft | 375 kts | 0° |
| 2026-04-25 01:56 | 22.67435 | 120.17095 | 15378 ft | 377 kts | 0° |
| 2026-04-25 01:56 | 22.69175 | 120.17238 | 15761 ft | 378 kts | 0° |
| 2026-04-25 01:56 | 22.71805 | 120.17446 | 16335 ft | 380 kts | 360° |
| 2026-04-25 01:56 | 22.74456 | 120.17646 | 16930 ft | 382 kts | 360° |
| 2026-04-25 01:57 | 22.80712 | 120.18113 | 18247 ft | 388 kts | 359° |
| 2026-04-25 01:57 | 22.82500 | 120.18247 | 18590 ft | 390 kts | 359° |
| 2026-04-25 01:57 | 22.85218 | 120.18453 | 19064 ft | 393 kts | 359° |
| 2026-04-25 01:58 | 22.87958 | 120.18662 | 19518 ft | 396 kts | 359° |
| 2026-04-25 01:58 | 22.90724 | 120.18874 | 19986 ft | 400 kts | 359° |
| 2026-04-25 01:58 | 22.93509 | 120.19089 | 20440 ft | 403 kts | 359° |
| 2026-04-25 01:58 | 22.96322 | 120.19303 | 20904 ft | 406 kts | 358° |
| 2026-04-25 01:59 | 22.99154 | 120.19517 | 21363 ft | 409 kts | 358° |
| 2026-04-25 01:59 | 23.02000 | 120.19732 | 21817 ft | 412 kts | 358° |
| 2026-04-25 01:59 | 23.04881 | 120.19949 | 22278 ft | 415 kts | 358° |
| 2026-04-25 01:59 | 23.07768 | 120.20169 | 22738 ft | 418 kts | 358° |
| 2026-04-25 02:00 | 23.10685 | 120.20393 | 23190 ft | 421 kts | 358° |
| 2026-04-25 02:00 | 23.13618 | 120.20768 | 23628 ft | 430 kts | 6° |
| 2026-04-25 02:00 | 23.16524 | 120.21677 | 23977 ft | 438 kts | 13° |
| 2026-04-25 02:00 | 23.19425 | 120.22740 | 24332 ft | 441 kts | 13° |
| 2026-04-25 02:01 | 23.22341 | 120.23804 | 24667 ft | 444 kts | 13° |
| 2026-04-25 02:01 | 23.25283 | 120.24873 | 25006 ft | 447 kts | 12° |
| 2026-04-25 02:01 | 23.28240 | 120.25945 | 25336 ft | 449 kts | 12° |
| 2026-04-25 02:01 | 23.31214 | 120.27026 | 25661 ft | 452 kts | 12° |
| 2026-04-25 02:02 | 23.34175 | 120.28101 | 25985 ft | 455 kts | 12° |
| 2026-04-25 02:02 | 23.37190 | 120.29194 | 26303 ft | 458 kts | 12° |
| 2026-04-25 02:02 | 23.40218 | 120.30295 | 26614 ft | 461 kts | 12° |
| 2026-04-25 02:02 | 23.43275 | 120.31406 | 26921 ft | 464 kts | 12° |
| 2026-04-25 02:03 | 23.46355 | 120.32524 | 27222 ft | 467 kts | 12° |
| 2026-04-25 02:03 | 23.49441 | 120.33647 | 27509 ft | 470 kts | 12° |
| 2026-04-25 02:03 | 23.52543 | 120.34780 | 27811 ft | 473 kts | 12° |
| 2026-04-25 02:03 | 23.55679 | 120.35927 | 28109 ft | 475 kts | 12° |
| 2026-04-25 02:04 | 23.58831 | 120.37079 | 28415 ft | 478 kts | 12° |
| 2026-04-25 02:04 | 23.61997 | 120.38234 | 28719 ft | 481 kts | 12° |
| 2026-04-25 02:04 | 23.65180 | 120.39396 | 29020 ft | 483 kts | 12° |
| 2026-04-25 02:04 | 23.68375 | 120.40558 | 29335 ft | 486 kts | 12° |
| 2026-04-25 02:05 | 23.71601 | 120.41728 | 29637 ft | 489 kts | 12° |
| 2026-04-25 02:05 | 23.74840 | 120.42900 | 29933 ft | 492 kts | 12° |
| 2026-04-25 02:05 | 23.78057 | 120.44066 | 30203 ft | 495 kts | 12° |
| 2026-04-25 02:05 | 23.81377 | 120.45271 | 30456 ft | 497 kts | 12° |
| 2026-04-25 02:06 | 23.84658 | 120.46467 | 30808 ft | 497 kts | 12° |
| 2026-04-25 02:06 | 23.87868 | 120.47757 | 31128 ft | 502 kts | 19° |
| 2026-04-25 02:06 | 23.90962 | 120.49584 | 31447 ft | 510 kts | 29° |
| 2026-04-25 02:06 | 23.93838 | 120.51986 | 31763 ft | 517 kts | 39° |
| 2026-04-25 02:07 | 23.96401 | 120.54680 | 32065 ft | 519 kts | 41° |
| 2026-04-25 02:07 | 23.98995 | 120.57430 | 32380 ft | 520 kts | 41° |
| 2026-04-25 02:07 | 24.01602 | 120.60182 | 32696 ft | 522 kts | 41° |
| 2026-04-25 02:07 | 24.04218 | 120.62936 | 32998 ft | 523 kts | 41° |
| 2026-04-25 02:08 | 24.06848 | 120.65705 | 33307 ft | 524 kts | 41° |
| 2026-04-25 02:08 | 24.09474 | 120.68477 | 33631 ft | 525 kts | 41° |
| 2026-04-25 02:08 | 24.12107 | 120.71263 | 33957 ft | 526 kts | 41° |
| 2026-04-25 02:08 | 24.14746 | 120.74056 | 34248 ft | 527 kts | 41° |
| 2026-04-25 02:09 | 24.17385 | 120.76850 | 34530 ft | 528 kts | 41° |
| 2026-04-25 02:09 | 24.20021 | 120.79649 | 34813 ft | 528 kts | 41° |
| 2026-04-25 02:09 | 24.22663 | 120.82452 | 35087 ft | 528 kts | 41° |
| 2026-04-25 02:09 | 24.25306 | 120.85250 | 35359 ft | 529 kts | 41° |
| 2026-04-25 02:10 | 24.27952 | 120.88052 | 35623 ft | 529 kts | 41° |
| 2026-04-25 02:10 | 24.30601 | 120.90864 | 35887 ft | 529 kts | 41° |
| 2026-04-25 02:10 | 24.33244 | 120.93676 | 36169 ft | 529 kts | 41° |
| 2026-04-25 02:10 | 24.35888 | 120.96496 | 36451 ft | 529 kts | 41° |
| 2026-04-25 02:11 | 24.38528 | 120.99310 | 36711 ft | 529 kts | 41° |
| 2026-04-25 02:11 | 24.41150 | 121.02149 | 37001 ft | 531 kts | 44° |
| 2026-04-25 02:11 | 24.43544 | 121.05253 | 37105 ft | 535 kts | 49° |
| 2026-04-25 02:12 | 24.48167 | 121.11622 | 37112 ft | 537 kts | 50° |
| 2026-04-25 02:12 | 24.52818 | 121.18057 | 37126 ft | 538 kts | 50° |
| 2026-04-25 02:13 | 24.57480 | 121.24502 | 37129 ft | 538 kts | 50° |
| 2026-04-25 02:13 | 24.62140 | 121.30932 | 37127 ft | 537 kts | 49° |
| 2026-04-25 02:14 | 24.66753 | 121.37323 | 37077 ft | 532 kts | 50° |
| 2026-04-25 02:14 | 24.71293 | 121.43630 | 37070 ft | 533 kts | 50° |
| 2026-04-25 02:15 | 24.75905 | 121.50023 | 37074 ft | 534 kts | 50° |
| 2026-04-25 02:15 | 24.80539 | 121.56457 | 37089 ft | 536 kts | 50° |
| 2026-04-25 02:16 | 24.85168 | 121.62899 | 37102 ft | 537 kts | 50° |
| 2026-04-25 02:16 | 24.89801 | 121.69367 | 37104 ft | 538 kts | 50° |
| 2026-04-25 02:17 | 24.94589 | 121.75690 | 37097 ft | 537 kts | 46° |
| 2026-04-25 02:17 | 24.99555 | 121.81866 | 37102 ft | 539 kts | 46° |
| 2026-04-25 02:18 | 25.04532 | 121.88063 | 37104 ft | 539 kts | 46° |
| 2026-04-25 02:18 | 25.09411 | 121.94284 | 37118 ft | 540 kts | 47° |
| 2026-04-25 02:19 | 25.14300 | 122.00588 | 37130 ft | 540 kts | 47° |
| 2026-04-25 02:19 | 25.19173 | 122.06907 | 37145 ft | 540 kts | 47° |
| 2026-04-25 02:20 | 25.24037 | 122.13233 | 37145 ft | 539 kts | 47° |
| 2026-04-25 02:20 | 25.28899 | 122.19547 | 37143 ft | 540 kts | 47° |
| 2026-04-25 02:21 | 25.33759 | 122.25872 | 37145 ft | 540 kts | 47° |
| 2026-04-25 02:21 | 25.38621 | 122.32201 | 37141 ft | 540 kts | 47° |
| 2026-04-25 02:22 | 25.43470 | 122.38531 | 37133 ft | 540 kts | 47° |
| 2026-04-25 02:22 | 25.48321 | 122.44869 | 37131 ft | 540 kts | 47° |
| 2026-04-25 02:23 | 25.53186 | 122.51223 | 37136 ft | 541 kts | 47° |
| 2026-04-25 02:23 | 25.58063 | 122.57557 | 37127 ft | 540 kts | 47° |
| 2026-04-25 02:24 | 25.62941 | 122.63891 | 37126 ft | 541 kts | 47° |
| 2026-04-25 02:24 | 25.67814 | 122.70233 | 37134 ft | 541 kts | 47° |
| 2026-04-25 02:25 | 25.72656 | 122.76557 | 37120 ft | 541 kts | 47° |
| 2026-04-25 02:25 | 25.77528 | 122.82918 | 37117 ft | 541 kts | 47° |
| 2026-04-25 02:26 | 25.82397 | 122.89285 | 37121 ft | 542 kts | 47° |
| 2026-04-25 02:26 | 25.87277 | 122.95683 | 37124 ft | 542 kts | 47° |
| 2026-04-25 02:27 | 25.92158 | 123.02080 | 37138 ft | 543 kts | 47° |
| 2026-04-25 02:27 | 25.97030 | 123.08492 | 37136 ft | 543 kts | 47° |
| 2026-04-25 02:28 | 26.01909 | 123.14920 | 37136 ft | 543 kts | 47° |
| 2026-04-25 02:28 | 26.06786 | 123.21346 | 37134 ft | 543 kts | 47° |
| 2026-04-25 02:29 | 26.11655 | 123.27780 | 37142 ft | 544 kts | 47° |
| 2026-04-25 02:29 | 26.16529 | 123.34228 | 37146 ft | 544 kts | 47° |
| 2026-04-25 02:30 | 26.21371 | 123.40631 | 37143 ft | 544 kts | 47° |
| 2026-04-25 02:30 | 26.26238 | 123.47088 | 37142 ft | 544 kts | 47° |
| 2026-04-25 02:31 | 26.31106 | 123.53555 | 37143 ft | 544 kts | 47° |
| 2026-04-25 02:31 | 26.35969 | 123.60021 | 37143 ft | 544 kts | 47° |
| 2026-04-25 02:32 | 26.40831 | 123.66502 | 37145 ft | 545 kts | 48° |
| 2026-04-25 02:32 | 26.45694 | 123.72992 | 37145 ft | 545 kts | 48° |
| 2026-04-25 02:33 | 26.50556 | 123.79486 | 37150 ft | 545 kts | 48° |
| 2026-04-25 02:33 | 26.55422 | 123.85983 | 37149 ft | 545 kts | 48° |
| 2026-04-25 02:34 | 26.60294 | 123.92497 | 37143 ft | 545 kts | 48° |
| 2026-04-25 02:34 | 26.65116 | 123.98982 | 37144 ft | 545 kts | 48° |
| 2026-04-25 02:35 | 26.69972 | 124.05498 | 37143 ft | 545 kts | 48° |
| 2026-04-25 02:35 | 26.74850 | 124.12013 | 37143 ft | 546 kts | 48° |
| 2026-04-25 02:36 | 26.79712 | 124.18536 | 37146 ft | 546 kts | 48° |
| 2026-04-25 02:36 | 26.84570 | 124.25062 | 37151 ft | 546 kts | 48° |
| 2026-04-25 02:37 | 26.89436 | 124.31594 | 37142 ft | 546 kts | 48° |
| 2026-04-25 02:37 | 26.94300 | 124.38140 | 37142 ft | 546 kts | 48° |
| 2026-04-25 02:38 | 26.99164 | 124.44697 | 37145 ft | 546 kts | 48° |
| 2026-04-25 02:38 | 27.04022 | 124.51256 | 37149 ft | 547 kts | 48° |
| 2026-04-25 02:39 | 27.08058 | 124.56703 | 37148 ft | 547 kts | 48° |
| 2026-04-25 02:39 | 27.13715 | 124.64359 | 37144 ft | 547 kts | 49° |
| 2026-04-25 02:40 | 27.17779 | 124.69880 | 37143 ft | 547 kts | 49° |
| 2026-04-25 02:40 | 27.22633 | 124.76480 | 37144 ft | 548 kts | 49° |
| 2026-04-25 02:41 | 27.27490 | 124.83079 | 37143 ft | 548 kts | 49° |
| 2026-04-25 02:41 | 27.32350 | 124.89688 | 37140 ft | 548 kts | 49° |
| 2026-04-25 02:42 | 27.37177 | 124.96262 | 37140 ft | 548 kts | 49° |
| 2026-04-25 02:42 | 27.42034 | 125.02869 | 37143 ft | 548 kts | 49° |
| 2026-04-25 02:43 | 27.46920 | 125.09474 | 37141 ft | 549 kts | 48° |
| 2026-04-25 02:43 | 27.51813 | 125.16061 | 37137 ft | 549 kts | 48° |
| 2026-04-25 02:44 | 27.56724 | 125.22689 | 37123 ft | 550 kts | 48° |
| 2026-04-25 02:44 | 27.61622 | 125.29320 | 37124 ft | 551 kts | 49° |
| 2026-04-25 02:45 | 27.66524 | 125.35987 | 37125 ft | 552 kts | 49° |
| 2026-04-25 02:45 | 27.71432 | 125.42665 | 37128 ft | 552 kts | 49° |
| 2026-04-25 02:46 | 27.76347 | 125.49340 | 37129 ft | 553 kts | 49° |
| 2026-04-25 02:46 | 27.81266 | 125.56032 | 37135 ft | 553 kts | 49° |
| 2026-04-25 02:47 | 27.86138 | 125.62695 | 37133 ft | 553 kts | 49° |
| 2026-04-25 02:47 | 27.91032 | 125.69405 | 37133 ft | 554 kts | 49° |
| 2026-04-25 02:48 | 27.95945 | 125.76127 | 37137 ft | 554 kts | 49° |
| 2026-04-25 02:48 | 28.00849 | 125.82850 | 37137 ft | 554 kts | 49° |
| 2026-04-25 02:49 | 28.05765 | 125.89600 | 37133 ft | 554 kts | 49° |
| 2026-04-25 02:49 | 28.10660 | 125.96341 | 37132 ft | 555 kts | 49° |
| 2026-04-25 02:50 | 28.15554 | 126.03103 | 37131 ft | 555 kts | 49° |
| 2026-04-25 02:50 | 28.20465 | 126.09881 | 37130 ft | 555 kts | 49° |
| 2026-04-25 02:51 | 28.25370 | 126.16658 | 37133 ft | 556 kts | 49° |
| 2026-04-25 02:51 | 28.30277 | 126.23446 | 37126 ft | 556 kts | 49° |
| 2026-04-25 02:52 | 28.35141 | 126.30201 | 37122 ft | 556 kts | 49° |
| 2026-04-25 02:52 | 28.40039 | 126.37009 | 37118 ft | 557 kts | 49° |
| 2026-04-25 02:53 | 28.44944 | 126.43823 | 37120 ft | 557 kts | 49° |
| 2026-04-25 02:53 | 28.49840 | 126.50645 | 37122 ft | 557 kts | 50° |
| 2026-04-25 02:54 | 28.54731 | 126.57484 | 37127 ft | 557 kts | 50° |
| 2026-04-25 02:54 | 28.59633 | 126.64344 | 37124 ft | 558 kts | 50° |
| 2026-04-25 02:55 | 28.64533 | 126.71205 | 37121 ft | 558 kts | 50° |
| 2026-04-25 02:55 | 28.69426 | 126.78071 | 37116 ft | 558 kts | 50° |
| 2026-04-25 02:56 | 28.74313 | 126.84946 | 37109 ft | 558 kts | 50° |
| 2026-04-25 02:56 | 28.79172 | 126.91783 | 37103 ft | 559 kts | 50° |
| 2026-04-25 02:57 | 28.84090 | 126.98722 | 37102 ft | 559 kts | 50° |
| 2026-04-25 02:57 | 28.88947 | 127.05581 | 37108 ft | 559 kts | 50° |
| 2026-04-25 02:58 | 28.93835 | 127.12483 | 37105 ft | 560 kts | 50° |
| 2026-04-25 02:58 | 28.98731 | 127.19411 | 37104 ft | 560 kts | 50° |
| 2026-04-25 02:59 | 29.03615 | 127.26354 | 37103 ft | 561 kts | 50° |
| 2026-04-25 02:59 | 29.08504 | 127.33314 | 37096 ft | 561 kts | 50° |
| 2026-04-25 03:00 | 29.13394 | 127.40272 | 37092 ft | 561 kts | 50° |
| 2026-04-25 03:00 | 29.18277 | 127.47244 | 37091 ft | 562 kts | 50° |
| 2026-04-25 03:01 | 29.23161 | 127.54223 | 37096 ft | 562 kts | 50° |
| 2026-04-25 03:01 | 29.28015 | 127.61172 | 37094 ft | 562 kts | 50° |
| 2026-04-25 03:02 | 29.32896 | 127.68175 | 37093 ft | 562 kts | 50° |
| 2026-04-25 03:02 | 29.37781 | 127.75198 | 37090 ft | 562 kts | 50° |
| 2026-04-25 03:03 | 29.42663 | 127.82215 | 37088 ft | 562 kts | 50° |
| 2026-04-25 03:03 | 29.47546 | 127.89233 | 37086 ft | 563 kts | 50° |
| 2026-04-25 03:04 | 29.52417 | 127.96268 | 37079 ft | 563 kts | 50° |
| 2026-04-25 03:04 | 29.57291 | 128.03323 | 37082 ft | 563 kts | 50° |
| 2026-04-25 03:05 | 29.64591 | 128.13919 | 37088 ft | 564 kts | 50° |
| 2026-04-25 03:05 | 29.69463 | 128.20991 | 37092 ft | 564 kts | 50° |
| 2026-04-25 03:06 | 29.74310 | 128.28011 | 37081 ft | 564 kts | 50° |
| 2026-04-25 03:06 | 29.79182 | 128.35094 | 37079 ft | 564 kts | 50° |
| 2026-04-25 03:07 | 29.84044 | 128.42201 | 37074 ft | 564 kts | 51° |
| 2026-04-25 03:07 | 29.88902 | 128.49302 | 37080 ft | 564 kts | 50° |
| 2026-04-25 03:08 | 29.93762 | 128.56403 | 37087 ft | 564 kts | 50° |
| 2026-04-25 03:08 | 29.98618 | 128.63525 | 37085 ft | 564 kts | 51° |
| 2026-04-25 03:09 | 30.03464 | 128.70648 | 37078 ft | 564 kts | 51° |
| 2026-04-25 03:09 | 30.08315 | 128.77780 | 37079 ft | 565 kts | 51° |
| 2026-04-25 03:10 | 30.13158 | 128.84922 | 37082 ft | 565 kts | 51° |
| 2026-04-25 03:10 | 30.17992 | 128.92065 | 37081 ft | 565 kts | 51° |
| 2026-04-25 03:11 | 30.22824 | 128.99230 | 37081 ft | 565 kts | 51° |
| 2026-04-25 03:11 | 30.27627 | 129.06361 | 37082 ft | 565 kts | 51° |
| 2026-04-25 03:12 | 30.32493 | 129.13564 | 37087 ft | 565 kts | 51° |
| 2026-04-25 03:12 | 30.37297 | 129.20702 | 37089 ft | 565 kts | 51° |
| 2026-04-25 03:13 | 30.42128 | 129.27913 | 37088 ft | 565 kts | 51° |
| 2026-04-25 03:13 | 30.46946 | 129.35114 | 37091 ft | 565 kts | 51° |
| 2026-04-25 03:14 | 30.51769 | 129.42326 | 37099 ft | 565 kts | 51° |
| 2026-04-25 03:14 | 30.56580 | 129.49540 | 37103 ft | 565 kts | 51° |
| 2026-04-25 03:15 | 30.61397 | 129.56769 | 37105 ft | 565 kts | 51° |
| 2026-04-25 03:15 | 30.66213 | 129.64011 | 37111 ft | 566 kts | 51° |
| 2026-04-25 03:16 | 30.71014 | 129.71235 | 37103 ft | 566 kts | 51° |
| 2026-04-25 03:16 | 30.75817 | 129.78485 | 37099 ft | 566 kts | 51° |
| 2026-04-25 03:17 | 30.80619 | 129.85741 | 37103 ft | 566 kts | 51° |
| 2026-04-25 03:17 | 30.85296 | 129.93104 | 37100 ft | 566 kts | 58° |
| 2026-04-25 03:18 | 30.89437 | 130.00901 | 37101 ft | 566 kts | 58° |
| 2026-04-25 03:18 | 30.93561 | 130.08659 | 37098 ft | 566 kts | 58° |
| 2026-04-25 03:19 | 30.97702 | 130.16468 | 37103 ft | 567 kts | 58° |
| 2026-04-25 03:19 | 31.01839 | 130.24281 | 37105 ft | 567 kts | 58° |
| 2026-04-25 03:20 | 31.05978 | 130.32125 | 37100 ft | 567 kts | 58° |
| 2026-04-25 03:20 | 31.10103 | 130.39957 | 37103 ft | 567 kts | 58° |
| 2026-04-25 03:21 | 31.14236 | 130.47802 | 37109 ft | 567 kts | 58° |
| 2026-04-25 03:21 | 31.18364 | 130.55642 | 37116 ft | 567 kts | 58° |
| 2026-04-25 03:22 | 31.22479 | 130.63511 | 37115 ft | 567 kts | 59° |
| 2026-04-25 03:22 | 31.25896 | 130.70052 | 37119 ft | 567 kts | 58° |
| 2026-04-25 03:23 | 31.30021 | 130.77925 | 37116 ft | 567 kts | 58° |
| 2026-04-25 03:23 | 31.34124 | 130.85787 | 37119 ft | 568 kts | 58° |
| 2026-04-25 03:24 | 31.38238 | 130.93710 | 37120 ft | 568 kts | 58° |
| 2026-04-25 03:24 | 31.42334 | 131.01616 | 37129 ft | 568 kts | 58° |
| 2026-04-25 03:25 | 31.46433 | 131.09549 | 37136 ft | 568 kts | 58° |
| 2026-04-25 03:25 | 31.50523 | 131.17480 | 37135 ft | 569 kts | 58° |
| 2026-04-25 03:26 | 31.54613 | 131.25413 | 37143 ft | 568 kts | 58° |
| 2026-04-25 03:26 | 31.58702 | 131.33340 | 37145 ft | 568 kts | 58° |
| 2026-04-25 03:27 | 31.62792 | 131.41291 | 37148 ft | 568 kts | 58° |
| 2026-04-25 03:27 | 31.66835 | 131.49193 | 37141 ft | 568 kts | 58° |
| 2026-04-25 03:28 | 31.70896 | 131.57156 | 37145 ft | 568 kts | 58° |
| 2026-04-25 03:28 | 31.74991 | 131.65202 | 37135 ft | 575 kts | 58° |
| 2026-04-25 03:29 | 31.79073 | 131.73228 | 37137 ft | 570 kts | 58° |
| 2026-04-25 03:29 | 31.83134 | 131.81226 | 37138 ft | 569 kts | 58° |
| 2026-04-25 03:30 | 31.87185 | 131.89227 | 37139 ft | 569 kts | 58° |
| 2026-04-25 03:30 | 31.91236 | 131.97234 | 37137 ft | 569 kts | 58° |
| 2026-04-25 03:31 | 31.95285 | 132.05256 | 37142 ft | 570 kts | 58° |
| 2026-04-25 03:31 | 31.99335 | 132.13296 | 37145 ft | 570 kts | 58° |
| 2026-04-25 03:32 | 32.03368 | 132.21336 | 37149 ft | 570 kts | 58° |
| 2026-04-25 03:32 | 32.07398 | 132.29383 | 37148 ft | 570 kts | 58° |
| 2026-04-25 03:33 | 32.11565 | 132.37263 | 37149 ft | 568 kts | 50° |
| 2026-04-25 03:33 | 32.16991 | 132.43865 | 37148 ft | 555 kts | 31° |
| 2026-04-25 03:34 | 32.23046 | 132.49535 | 37156 ft | 555 kts | 32° |
| 2026-04-25 03:34 | 32.29079 | 132.55256 | 37159 ft | 556 kts | 32° |
| 2026-04-25 03:35 | 32.35104 | 132.60993 | 37166 ft | 556 kts | 32° |
| 2026-04-25 03:35 | 32.41124 | 132.66714 | 37170 ft | 555 kts | 32° |
| 2026-04-25 03:36 | 32.47150 | 132.72440 | 37170 ft | 555 kts | 32° |
| 2026-04-25 03:36 | 32.53158 | 132.78165 | 37177 ft | 554 kts | 32° |
| 2026-04-25 03:37 | 32.59164 | 132.83904 | 37184 ft | 554 kts | 32° |
| 2026-04-25 03:37 | 32.65162 | 132.89651 | 37183 ft | 554 kts | 32° |
| 2026-04-25 03:38 | 32.71150 | 132.95396 | 37185 ft | 553 kts | 32° |
| 2026-04-25 03:38 | 32.76716 | 133.01684 | 37186 ft | 563 kts | 48° |
| 2026-04-25 03:39 | 32.81327 | 133.09309 | 37186 ft | 564 kts | 52° |
| 2026-04-25 03:39 | 32.85830 | 133.16880 | 37184 ft | 564 kts | 52° |
| 2026-04-25 03:40 | 32.90359 | 133.24512 | 37153 ft | 564 kts | 52° |
| 2026-04-25 03:40 | 32.92614 | 133.28324 | 36081 ft | 565 kts | 53° |
| 2026-04-25 03:40 | 32.94890 | 133.32176 | 34807 ft | 572 kts | 53° |
| 2026-04-25 03:41 | 32.97171 | 133.36040 | 33832 ft | 568 kts | 54° |
| 2026-04-25 03:41 | 32.99433 | 133.39877 | 32918 ft | 562 kts | 53° |
| 2026-04-25 03:41 | 33.01664 | 133.43661 | 32090 ft | 554 kts | 53° |
| 2026-04-25 03:41 | 33.03868 | 133.47396 | 31352 ft | 545 kts | 53° |
| 2026-04-25 03:42 | 33.06032 | 133.51072 | 30933 ft | 537 kts | 53° |
| 2026-04-25 03:42 | 33.08171 | 133.54714 | 30454 ft | 534 kts | 53° |
| 2026-04-25 03:42 | 33.10291 | 133.58333 | 29972 ft | 531 kts | 53° |
| 2026-04-25 03:42 | 33.12392 | 133.61925 | 29537 ft | 525 kts | 53° |
| 2026-04-25 03:43 | 33.14446 | 133.65433 | 29118 ft | 519 kts | 53° |
| 2026-04-25 03:43 | 33.16524 | 133.68982 | 28733 ft | 512 kts | 53° |
| 2026-04-25 03:43 | 33.18561 | 133.72462 | 28294 ft | 507 kts | 53° |
| 2026-04-25 03:43 | 33.20542 | 133.75851 | 27953 ft | 501 kts | 53° |
| 2026-04-25 03:44 | 33.22525 | 133.79250 | 27512 ft | 496 kts | 53° |
| 2026-04-25 03:44 | 33.24483 | 133.82615 | 27204 ft | 489 kts | 53° |
| 2026-04-25 03:44 | 33.26418 | 133.85940 | 26785 ft | 485 kts | 53° |
| 2026-04-25 03:44 | 33.28337 | 133.89236 | 26408 ft | 481 kts | 53° |
| 2026-04-25 03:45 | 33.30233 | 133.92490 | 26060 ft | 476 kts | 53° |
| 2026-04-25 03:45 | 33.32117 | 133.95726 | 25694 ft | 468 kts | 53° |
| 2026-04-25 03:45 | 33.33951 | 133.98883 | 25040 ft | 461 kts | 53° |